createdAt,value
2018-08-13T00:01:06.254Z,97463.90
2018-08-13T00:03:35.047Z,97460.05
2018-08-13T00:06:04.029Z,97458.69
2018-08-13T00:08:32.966Z,97457.26
2018-08-13T00:11:01.980Z,97457.45
2018-08-13T00:13:31.009Z,97454.00
2018-08-13T00:15:59.777Z,97449.51
2018-08-13T00:18:28.868Z,97444.64
2018-08-13T00:20:57.716Z,97437.59
2018-08-13T00:23:26.391Z,97438.55
2018-08-13T00:25:55.453Z,97439.31
2018-08-13T00:28:24.239Z,97439.05
2018-08-13T00:30:53.029Z,97429.90
2018-08-13T00:33:22.078Z,97427.89
2018-08-13T00:35:51.090Z,97427.42
2018-08-13T00:38:19.950Z,97428.19
2018-08-13T00:40:48.860Z,97422.21
2018-08-13T00:43:17.768Z,97423.06
2018-08-13T00:45:46.612Z,97423.17
2018-08-13T00:48:15.568Z,97418.66
2018-08-13T00:50:44.322Z,97421.91
2018-08-13T00:53:13.121Z,97424.84
2018-08-13T00:55:41.937Z,97418.97
2018-08-13T00:58:10.658Z,97416.23
2018-08-13T01:00:39.595Z,97420.33
2018-08-13T01:03:08.571Z,97410.14
2018-08-13T01:05:37.290Z,97414.96
2018-08-13T01:08:06.188Z,97411.30
2018-08-13T01:10:34.895Z,97410.03
2018-08-13T01:13:03.853Z,97408.78
2018-08-13T01:15:32.684Z,97398.30
2018-08-13T01:18:01.433Z,97400.74
2018-08-13T01:20:30.481Z,97405.05
2018-08-13T01:22:59.318Z,97401.90
2018-08-13T01:25:28.143Z,97396.73
2018-08-13T01:27:56.854Z,97396.73
2018-08-13T01:30:25.614Z,97390.31
2018-08-13T01:32:55.414Z,97389.86
2018-08-13T01:35:24.241Z,97383.44
2018-08-13T01:37:53.138Z,97386.42
2018-08-13T01:40:21.953Z,97380.29
2018-08-13T01:42:50.640Z,97383.81
2018-08-13T01:45:19.448Z,97382.00
2018-08-13T01:47:48.180Z,97376.91
2018-08-13T01:50:17.115Z,97384.11
2018-08-13T01:52:45.892Z,97378.16
2018-08-13T01:55:14.679Z,97377.67
2018-08-13T01:57:43.545Z,97367.11
2018-08-13T02:00:17.114Z,97366.53
2018-08-13T02:02:46.531Z,97361.44
2018-08-13T02:05:15.527Z,97358.49
2018-08-13T02:07:44.716Z,97346.78
2018-08-13T02:10:14.381Z,97350.97
2018-08-13T02:12:43.153Z,97352.91
2018-08-13T02:15:12.154Z,97350.14
2018-08-13T02:17:40.923Z,97347.91
2018-08-13T02:20:10.406Z,97345.92
2018-08-13T02:22:39.498Z,97349.86
2018-08-13T02:25:09.043Z,97349.06
2018-08-13T02:27:38.284Z,97349.27
2018-08-13T02:30:10.630Z,97345.80
2018-08-13T02:32:39.943Z,97343.98
2018-08-13T02:35:09.829Z,97345.67
2018-08-13T02:37:39.379Z,97340.66
2018-08-13T02:40:09.851Z,97339.88
2018-08-13T02:42:38.707Z,97342.11
2018-08-13T02:45:09.562Z,97344.97
2018-08-13T02:47:38.619Z,97342.73
2018-08-13T02:50:09.809Z,97343.89
2018-08-13T02:52:38.854Z,97345.47
2018-08-13T02:55:08.638Z,97346.58
2018-08-13T02:57:37.397Z,97352.48
2018-08-13T03:00:07.586Z,97349.09
2018-08-13T03:02:36.382Z,97352.55
2018-08-13T03:05:07.075Z,97354.72
2018-08-13T03:07:35.780Z,97353.36
2018-08-13T03:10:05.820Z,97349.02
2018-08-13T03:12:35.225Z,97338.35
2018-08-13T03:15:04.418Z,97340.63
2018-08-13T03:17:33.429Z,97341.29
2018-08-13T03:20:02.511Z,97344.16
2018-08-13T03:22:31.788Z,97340.64
2018-08-13T03:25:02.027Z,97341.64
2018-08-13T03:27:30.883Z,97344.28
2018-08-13T03:30:00.811Z,97338.70
2018-08-13T03:32:29.713Z,97343.21
2018-08-13T03:34:58.726Z,97338.63
2018-08-13T03:37:27.459Z,97339.00
2018-08-13T03:39:56.299Z,97349.02
2018-08-13T03:42:24.959Z,97351.27
2018-08-13T03:44:53.675Z,97355.14
2018-08-13T03:47:22.413Z,97354.93
2018-08-13T03:49:51.125Z,97362.91
2018-08-13T03:52:20.758Z,97356.15
2018-08-13T03:54:49.622Z,97358.45
2018-08-13T03:57:18.453Z,97361.39
2018-08-13T03:59:47.261Z,97350.55
2018-08-13T04:02:15.929Z,97361.67
2018-08-13T04:04:45.100Z,97358.30
2018-08-13T04:07:13.945Z,97359.61
2018-08-13T04:09:44.522Z,97361.91
2018-08-13T04:12:14.472Z,97359.88
2018-08-13T04:14:43.365Z,97358.39
2018-08-13T04:17:12.108Z,97361.96
2018-08-13T04:19:40.789Z,97354.80
2018-08-13T04:22:09.552Z,97348.20
2018-08-13T04:24:38.230Z,97346.26
2018-08-13T04:27:06.958Z,97342.38
2018-08-13T04:29:35.674Z,97344.73
2018-08-13T04:32:04.880Z,97343.09
2018-08-13T04:34:33.705Z,97345.24
2018-08-13T04:37:02.865Z,97345.88
2018-08-13T04:39:31.649Z,97346.44
2018-08-13T04:42:00.637Z,97352.55
2018-08-13T04:44:29.858Z,97349.30
2018-08-13T04:46:58.599Z,97352.69
2018-08-13T04:49:27.627Z,97341.41
2018-08-13T04:51:56.473Z,97340.53
2018-08-13T04:54:25.297Z,97339.22
2018-08-13T04:56:54.023Z,97342.58
2018-08-13T04:59:23.197Z,97338.64
2018-08-13T05:01:51.917Z,97339.88
2018-08-13T05:04:20.586Z,97333.52
2018-08-13T05:06:49.649Z,97328.13
2018-08-13T05:09:18.488Z,97323.95
2018-08-13T05:11:47.343Z,97316.75
2018-08-13T05:14:16.088Z,97315.66
2018-08-13T05:16:44.889Z,97318.06
2018-08-13T05:19:13.801Z,97319.13
2018-08-13T05:21:42.643Z,97309.89
2018-08-13T05:24:11.586Z,97306.11
2018-08-13T05:26:40.990Z,97307.59
2018-08-13T05:29:09.843Z,97308.31
2018-08-13T05:31:38.714Z,97310.63
2018-08-13T05:34:07.434Z,97306.98
2018-08-13T05:36:36.549Z,97297.39
2018-08-13T05:39:09.235Z,97300.05
2018-08-13T05:41:38.038Z,97301.92
2018-08-13T05:44:07.030Z,97310.80
2018-08-13T05:46:36.515Z,97314.98
2018-08-13T05:49:05.367Z,97307.64
2018-08-13T05:51:34.501Z,97301.64
2018-08-13T05:54:03.615Z,97309.25
2018-08-13T05:56:32.381Z,97307.98
2018-08-13T05:59:01.216Z,97309.44
2018-08-13T06:01:30.182Z,97311.58
2018-08-13T06:03:59.503Z,97301.30
2018-08-13T06:06:28.348Z,97300.39
2018-08-13T06:08:58.015Z,97295.84
2018-08-13T06:11:27.201Z,97294.33
2018-08-13T06:13:55.951Z,97293.28
2018-08-13T06:16:24.773Z,97295.84
2018-08-13T06:18:53.673Z,97291.41
2018-08-13T06:21:22.394Z,97289.53
2018-08-13T06:23:51.138Z,97291.72
2018-08-13T06:26:19.948Z,97281.16
2018-08-13T06:28:48.685Z,97288.14
2018-08-13T06:31:17.698Z,97285.98
2018-08-13T06:33:46.475Z,97283.87
2018-08-13T06:36:15.190Z,97289.17
2018-08-13T06:38:44.050Z,97289.22
2018-08-13T06:41:12.806Z,97289.40
2018-08-13T06:43:41.602Z,97278.42
2018-08-13T06:46:10.515Z,97284.73
2018-08-13T06:48:39.718Z,97281.41
2018-08-13T06:51:08.580Z,97267.28
2018-08-13T06:53:39.419Z,97266.08
2018-08-13T06:56:08.652Z,97260.36
2018-08-13T06:58:37.590Z,97268.21
2018-08-13T07:01:06.532Z,97266.41
2018-08-13T07:03:35.641Z,97258.90
2018-08-13T07:06:04.800Z,97265.77
2018-08-13T07:08:33.574Z,97268.66
2018-08-13T07:11:02.270Z,97267.44
2018-08-13T07:13:31.357Z,97266.81
2018-08-13T07:16:00.425Z,97271.25
2018-08-13T07:18:29.232Z,97268.67
2018-08-13T07:20:57.961Z,97264.45
2018-08-13T07:23:26.874Z,97264.00
2018-08-13T07:25:55.781Z,97272.81
2018-08-13T07:28:24.746Z,97269.59
2018-08-13T07:30:53.768Z,97264.39
2018-08-13T07:33:22.541Z,97266.91
2018-08-13T07:35:51.385Z,97269.56
2018-08-13T07:38:20.157Z,97270.52
2018-08-13T07:40:48.921Z,97270.26
2018-08-13T07:43:17.969Z,97274.64
2018-08-13T07:45:48.542Z,97269.53
2018-08-13T07:48:17.609Z,97268.47
2018-08-13T07:50:46.377Z,97267.00
2018-08-13T07:53:15.086Z,97266.58
2018-08-13T07:55:43.803Z,97270.20
2018-08-13T07:58:12.761Z,97269.19
2018-08-13T08:00:42.221Z,97269.53
2018-08-13T08:03:10.963Z,97268.56
2018-08-13T08:05:39.945Z,97262.33
2018-08-13T08:08:09.234Z,97258.90
2018-08-13T08:10:39.405Z,97264.98
2018-08-13T08:13:08.633Z,97261.20
2018-08-13T08:15:38.014Z,97256.03
2018-08-13T08:18:06.830Z,97264.11
2018-08-13T08:20:36.037Z,97266.48
2018-08-13T08:23:04.913Z,97268.42
2018-08-13T08:25:33.637Z,97273.37
2018-08-13T08:28:02.773Z,97275.47
2018-08-13T08:30:32.106Z,97281.48
2018-08-13T08:33:00.948Z,97277.73
2018-08-13T08:35:29.722Z,97282.90
2018-08-13T08:37:58.546Z,97285.91
2018-08-13T08:40:27.335Z,97278.72
2018-08-13T08:42:56.038Z,97278.33
2018-08-13T08:45:27.984Z,97277.47
2018-08-13T08:47:57.513Z,97292.71
2018-08-13T08:50:27.368Z,97303.55
2018-08-13T08:52:56.081Z,97307.68
2018-08-13T08:55:25.000Z,97304.91
2018-08-13T08:57:54.025Z,97303.27
2018-08-13T09:00:24.605Z,97299.11
2018-08-13T09:02:54.208Z,97306.91
2018-08-13T09:05:22.940Z,97305.27
2018-08-13T09:07:51.796Z,97302.69
2018-08-13T09:10:20.721Z,97311.07
2018-08-13T09:12:50.191Z,97317.34
2018-08-13T09:15:25.507Z,97320.77
2018-08-13T09:18:05.381Z,97321.16
2018-08-13T09:20:44.967Z,97331.63
2018-08-13T09:23:24.894Z,97318.60
2018-08-13T09:26:05.037Z,97327.47
2018-08-13T09:28:44.694Z,97318.33
2018-08-13T09:31:24.248Z,97331.18
2018-08-13T09:34:03.912Z,97330.90
2018-08-13T09:36:32.830Z,97327.23
2018-08-13T09:39:01.665Z,97337.77
2018-08-13T09:41:30.449Z,97333.70
2018-08-13T09:43:59.211Z,97335.09
2018-08-13T09:46:27.992Z,97341.84
2018-08-13T09:48:56.715Z,97342.48
2018-08-13T09:51:25.410Z,97347.67
2018-08-13T09:53:54.284Z,97349.38
2018-08-13T09:56:22.969Z,97353.58
2018-08-13T09:58:51.779Z,97356.30
2018-08-13T10:01:20.660Z,97341.41
2018-08-13T10:03:49.740Z,97344.19
2018-08-13T10:06:19.090Z,97338.27
2018-08-13T10:08:47.827Z,97342.45
2018-08-13T10:11:16.601Z,97346.48
2018-08-13T10:13:45.405Z,97344.18
2018-08-13T10:16:14.419Z,97345.75
2018-08-13T10:18:43.701Z,97348.17
2018-08-13T10:21:12.462Z,97340.16
2018-08-13T10:23:41.144Z,97342.98
2018-08-13T10:26:10.066Z,97346.52
2018-08-13T10:28:38.868Z,97345.45
2018-08-13T10:31:07.646Z,97352.55
2018-08-13T10:33:36.482Z,97342.44
2018-08-13T10:36:05.430Z,97348.77
2018-08-13T10:38:34.166Z,97345.45
2018-08-13T10:41:03.079Z,97352.89
2018-08-13T10:43:32.239Z,97346.88
2018-08-13T10:46:01.400Z,97350.03
2018-08-13T10:48:30.394Z,97364.91
2018-08-13T10:50:59.480Z,97349.68
2018-08-13T10:53:28.537Z,97352.14
2018-08-13T10:55:57.791Z,97345.21
2018-08-13T10:58:26.565Z,97351.14
2018-08-13T11:00:55.539Z,97364.67
2018-08-13T11:03:24.294Z,97360.66
2018-08-13T11:05:53.196Z,97364.61
2018-08-13T11:08:28.356Z,97371.20
2018-08-13T11:10:57.151Z,97372.71
2018-08-13T11:13:26.103Z,97381.03
2018-08-13T11:15:54.833Z,97383.06
2018-08-13T11:18:23.954Z,97383.38
2018-08-13T11:20:52.663Z,97385.45
2018-08-13T11:23:21.466Z,97386.61
2018-08-13T11:25:50.212Z,97391.27
2018-08-13T11:28:18.970Z,97397.47
2018-08-13T11:30:47.887Z,97404.84
2018-08-13T11:33:16.622Z,97407.20
2018-08-13T11:35:45.583Z,97421.92
2018-08-13T11:38:14.576Z,97428.00
2018-08-13T11:40:43.329Z,97427.38
2018-08-13T11:43:12.079Z,97433.78
2018-08-13T11:45:40.937Z,97440.47
2018-08-13T11:48:09.812Z,97429.86
2018-08-13T11:50:39.033Z,97438.99
2018-08-13T11:53:07.857Z,97432.61
2018-08-13T11:55:36.734Z,97440.28
2018-08-13T11:58:05.549Z,97439.91
2018-08-13T12:00:34.297Z,97445.80
2018-08-13T12:03:03.073Z,97431.82
2018-08-13T12:05:31.978Z,97433.24
2018-08-13T12:08:00.678Z,97430.34
2018-08-13T12:10:29.896Z,97435.97
2018-08-13T12:12:58.933Z,97436.48
2018-08-13T12:15:27.790Z,97434.31
2018-08-13T12:17:56.609Z,97425.37
2018-08-13T12:20:25.289Z,97431.25
2018-08-13T12:22:54.225Z,97424.42
2018-08-13T12:25:26.058Z,97425.42
2018-08-13T12:27:55.278Z,97423.35
2018-08-13T12:30:24.309Z,97435.50
2018-08-13T12:32:54.099Z,97430.39
2018-08-13T12:35:22.926Z,97429.48
2018-08-13T12:37:52.047Z,97438.82
2018-08-13T12:40:21.372Z,97444.88
2018-08-13T12:42:50.170Z,97444.17
2018-08-13T12:45:19.494Z,97434.89
2018-08-13T12:47:48.518Z,97440.80
2018-08-13T12:50:19.161Z,97437.67
2018-08-13T12:52:50.009Z,97445.56
2018-08-13T12:55:18.985Z,97448.73
2018-08-13T12:57:48.134Z,97440.87
2018-08-13T13:00:18.155Z,97441.66
2018-08-13T13:02:46.874Z,97443.00
2018-08-13T13:05:16.923Z,97429.39
2018-08-13T13:07:45.624Z,97425.76
2018-08-13T13:10:16.118Z,97429.06
2018-08-13T13:12:45.110Z,97423.45
2018-08-13T13:15:15.506Z,97431.64
2018-08-13T13:17:44.482Z,97421.27
2018-08-13T13:20:15.597Z,97406.06
2018-08-13T13:22:44.322Z,97402.80
2018-08-13T13:25:13.203Z,97396.26
2018-08-13T13:27:41.941Z,97394.63
2018-08-13T13:30:13.417Z,97387.88
2018-08-13T13:32:42.633Z,97385.83
2018-08-13T13:35:14.085Z,97380.01
2018-08-13T13:37:43.222Z,97377.22
2018-08-13T13:40:14.535Z,97374.19
2018-08-13T13:42:43.560Z,97372.95
2018-08-13T13:45:13.137Z,97372.75
2018-08-13T13:47:42.454Z,97366.94
2018-08-13T13:50:14.103Z,97368.94
2018-08-13T13:52:43.897Z,97364.91
2018-08-13T13:55:13.184Z,97367.66
2018-08-13T13:57:41.897Z,97370.13
2018-08-13T14:00:17.309Z,97369.28
2018-08-13T14:02:47.650Z,97358.81
2018-08-13T14:05:16.760Z,97351.06
2018-08-13T14:07:45.612Z,97349.00
2018-08-13T14:10:16.833Z,97350.37
2018-08-13T14:12:46.308Z,97346.34
2018-08-13T14:15:17.972Z,97345.94
2018-08-13T14:17:47.198Z,97355.09
2018-08-13T14:20:16.154Z,97349.36
2018-08-13T14:22:45.006Z,97352.20
2018-08-13T14:25:14.823Z,97343.02
2018-08-13T14:27:43.908Z,97349.97
2018-08-13T14:30:17.659Z,97359.02
2018-08-13T14:32:47.145Z,97354.44
2018-08-13T14:35:16.902Z,97350.14
2018-08-13T14:37:45.809Z,97349.73
2018-08-13T14:40:14.774Z,97355.84
2018-08-13T14:42:44.835Z,97351.07
2018-08-13T14:45:16.075Z,97355.98
2018-08-13T14:47:46.655Z,97353.67
2018-08-13T14:50:15.942Z,97352.70
2018-08-13T14:52:45.977Z,97360.53
2018-08-13T14:55:16.509Z,97352.86
2018-08-13T14:57:47.811Z,97352.30
2018-08-13T15:00:21.117Z,97352.89
2018-08-13T15:02:50.481Z,97357.29
2018-08-13T15:05:19.719Z,97345.44
2018-08-13T15:07:48.718Z,97334.95
2018-08-13T15:10:19.778Z,97345.78
2018-08-13T15:12:48.865Z,97349.03
2018-08-13T15:15:17.737Z,97352.05
2018-08-13T15:17:46.673Z,97352.65
2018-08-13T15:20:20.338Z,97356.59
2018-08-13T15:22:49.129Z,97359.48
2018-08-13T15:25:18.021Z,97356.20
2018-08-13T15:27:47.216Z,97352.88
2018-08-13T15:30:17.463Z,97349.34
2018-08-13T15:32:47.822Z,97351.06
2018-08-13T15:35:16.593Z,97354.64
2018-08-13T15:37:45.970Z,97353.20
2018-08-13T15:40:14.997Z,97349.22
2018-08-13T15:42:43.709Z,97344.52
2018-08-13T15:45:14.431Z,97343.90
2018-08-13T15:47:43.628Z,97344.06
2018-08-13T15:50:14.338Z,97345.30
2018-08-13T15:52:45.683Z,97351.19
2018-08-13T15:55:15.500Z,97343.77
2018-08-13T15:57:46.118Z,97336.20
2018-08-13T16:00:21.845Z,97338.52
2018-08-13T16:02:51.986Z,97335.77
2018-08-13T16:05:21.483Z,97325.34
2018-08-13T16:07:56.946Z,97326.30
2018-08-13T16:10:26.051Z,97324.37
2018-08-13T16:12:56.064Z,97330.03
2018-08-13T16:15:25.777Z,97321.17
2018-08-13T16:17:54.710Z,97323.62
2018-08-13T16:20:23.528Z,97327.76
2018-08-13T16:22:52.311Z,97319.95
2018-08-13T16:25:21.258Z,97325.88
2018-08-13T16:27:50.506Z,97327.30
2018-08-13T16:30:23.976Z,97318.70
2018-08-13T16:32:53.249Z,97309.13
2018-08-13T16:35:23.471Z,97311.16
2018-08-13T16:37:52.539Z,97299.14
2018-08-13T16:40:21.881Z,97295.48
2018-08-13T16:42:51.671Z,97297.22
2018-08-13T16:45:21.906Z,97296.02
2018-08-13T16:47:51.427Z,97287.71
2018-08-13T16:50:24.298Z,97284.27
2018-08-13T16:52:53.463Z,97285.26
2018-08-13T16:55:22.181Z,97288.09
2018-08-13T16:57:51.102Z,97292.11
2018-08-13T17:00:27.674Z,97288.45
2018-08-13T17:02:57.610Z,97281.21
2018-08-13T17:05:29.414Z,97278.36
2018-08-13T17:07:58.404Z,97274.93
2018-08-13T17:10:28.306Z,97278.05
2018-08-13T17:12:57.943Z,97273.05
2018-08-13T17:15:29.105Z,97278.82
2018-08-13T17:17:59.413Z,97270.86
2018-08-13T17:20:31.590Z,97270.52
2018-08-13T17:23:00.384Z,97263.23
2018-08-13T17:25:29.352Z,97257.02
2018-08-13T17:27:58.191Z,97257.73
2018-08-13T17:30:27.548Z,97256.48
2018-08-13T17:32:57.685Z,97265.66
2018-08-13T17:35:32.767Z,97267.38
2018-08-13T17:38:03.162Z,97272.22
2018-08-13T17:40:32.636Z,97274.14
2018-08-13T17:43:01.626Z,97282.05
2018-08-13T17:45:30.279Z,97281.13
2018-08-13T17:47:58.968Z,97279.52
2018-08-13T17:50:27.707Z,97284.52
2018-08-13T17:52:56.435Z,97288.44
2018-08-13T17:55:25.345Z,97288.25
2018-08-13T17:57:54.184Z,97290.81
2018-08-13T18:00:24.760Z,97298.75
2018-08-13T18:02:53.850Z,97298.13
2018-08-13T18:05:25.505Z,97299.78
2018-08-13T18:07:55.040Z,97290.23
2018-08-13T18:10:28.630Z,97294.85
2018-08-13T18:12:58.470Z,97293.88
2018-08-13T18:15:27.357Z,97288.22
2018-08-13T18:17:56.270Z,97296.89
2018-08-13T18:20:25.040Z,97300.42
2018-08-13T18:22:53.941Z,97298.89
2018-08-13T18:25:22.749Z,97307.16
2018-08-13T18:27:52.206Z,97307.72
2018-08-13T18:30:23.287Z,97315.06
2018-08-13T18:32:52.651Z,97316.63
2018-08-13T18:35:21.470Z,97311.52
2018-08-13T18:37:50.359Z,97321.59
2018-08-13T18:40:22.479Z,97324.70
2018-08-13T18:42:51.508Z,97328.05
2018-08-13T18:45:20.545Z,97333.55
2018-08-13T18:47:50.199Z,97331.22
2018-08-13T18:50:20.186Z,97332.60
2018-08-13T18:52:49.042Z,97327.86
2018-08-13T18:55:22.205Z,97334.15
2018-08-13T18:57:51.477Z,97333.58
2018-08-13T19:00:27.401Z,97331.59
2018-08-13T19:02:57.779Z,97333.19
2018-08-13T19:05:26.633Z,97336.73
2018-08-13T19:07:55.441Z,97338.71
2018-08-13T19:10:24.338Z,97342.84
2018-08-13T19:12:53.475Z,97342.86
2018-08-13T19:15:25.185Z,97343.66
2018-08-13T19:17:54.298Z,97342.09
2018-08-13T19:20:23.377Z,97337.92
2018-08-13T19:22:52.621Z,97339.13
2018-08-13T19:25:25.033Z,97350.34
2018-08-13T19:27:53.997Z,97364.87
2018-08-13T19:30:23.876Z,97386.88
2018-08-13T19:32:53.516Z,122743.50
2018-08-13T19:53:36.481Z,122743.50
2018-08-13T20:12:08.843Z,122743.50
2018-08-13T20:14:46.554Z,122743.50
